sensor_id;sensor_type;location;lat;lon;timestamp;P1;durP1;ratioP1;P2;durP2;ratioP2
72139;SDS011;60018;49.688;19.180;2022-09-13T00:00:13;1.30;;;1.13;;
72139;SDS011;60018;49.688;19.180;2022-09-13T00:02:38;0.90;;;0.90;;
72139;SDS011;60018;49.688;19.180;2022-09-13T00:05:04;1.13;;;1.03;;
72139;SDS011;60018;49.688;19.180;2022-09-13T00:07:30;1.37;;;1.23;;
72139;SDS011;60018;49.688;19.180;2022-09-13T00:09:55;1.33;;;1.13;;
72139;SDS011;60018;49.688;19.180;2022-09-13T00:12:22;1.20;;;1.10;;
72139;SDS011;60018;49.688;19.180;2022-09-13T00:14:48;1.17;;;1.07;;
72139;SDS011;60018;49.688;19.180;2022-09-13T00:17:13;0.93;;;0.93;;
72139;SDS011;60018;49.688;19.180;2022-09-13T00:19:38;0.93;;;0.93;;
72139;SDS011;60018;49.688;19.180;2022-09-13T00:22:04;1.30;;;1.07;;
72139;SDS011;60018;49.688;19.180;2022-09-13T00:24:29;1.17;;;1.07;;
72139;SDS011;60018;49.688;19.180;2022-09-13T00:26:54;1.20;;;1.10;;
72139;SDS011;60018;49.688;19.180;2022-09-13T00:29:21;1.17;;;1.07;;
72139;SDS011;60018;49.688;19.180;2022-09-13T00:31:46;1.03;;;0.93;;
72139;SDS011;60018;49.688;19.180;2022-09-13T00:34:12;1.07;;;1.07;;
72139;SDS011;60018;49.688;19.180;2022-09-13T00:36:37;1.17;;;1.07;;
72139;SDS011;60018;49.688;19.180;2022-09-13T00:39:03;0.80;;;0.80;;
72139;SDS011;60018;49.688;19.180;2022-09-13T00:41:28;1.20;;;1.10;;
72139;SDS011;60018;49.688;19.180;2022-09-13T00:43:55;1.23;;;1.13;;
72139;SDS011;60018;49.688;19.180;2022-09-13T00:46:24;0.90;;;0.90;;
72139;SDS011;60018;49.688;19.180;2022-09-13T00:48:56;1.03;;;1.03;;
72139;SDS011;60018;49.688;19.180;2022-09-13T00:51:25;1.17;;;1.07;;
72139;SDS011;60018;49.688;19.180;2022-09-13T00:53:51;0.87;;;0.87;;
72139;SDS011;60018;49.688;19.180;2022-09-13T00:56:21;0.97;;;0.97;;
72139;SDS011;60018;49.688;19.180;2022-09-13T00:58:51;1.17;;;1.07;;
72139;SDS011;60018;49.688;19.180;2022-09-13T01:01:20;0.97;;;0.97;;
72139;SDS011;60018;49.688;19.180;2022-09-13T01:06:19;1.13;;;1.07;;
72139;SDS011;60018;49.688;19.180;2022-09-13T01:08:47;1.03;;;1.03;;
72139;SDS011;60018;49.688;19.180;2022-09-13T01:11:16;1.07;;;1.07;;
72139;SDS011;60018;49.688;19.180;2022-09-13T01:13:47;0.93;;;0.93;;
72139;SDS011;60018;49.688;19.180;2022-09-13T01:16:13;1.33;;;1.33;;
72139;SDS011;60018;49.688;19.180;2022-09-13T01:18:40;1.00;;;1.00;;
72139;SDS011;60018;49.688;19.180;2022-09-13T01:24:10;1.07;;;1.07;;
72139;SDS011;60018;49.688;19.180;2022-09-13T01:27:03;1.00;;;1.00;;
72139;SDS011;60018;49.688;19.180;2022-09-13T01:29:56;0.93;;;0.93;;
72139;SDS011;60018;49.688;19.180;2022-09-13T01:32:28;0.97;;;0.97;;
72139;SDS011;60018;49.688;19.180;2022-09-13T01:35:03;1.00;;;1.00;;
72139;SDS011;60018;49.688;19.180;2022-09-13T01:37:41;1.27;;;1.17;;
72139;SDS011;60018;49.688;19.180;2022-09-13T01:40:16;1.20;;;1.10;;
72139;SDS011;60018;49.688;19.180;2022-09-13T01:42:59;0.90;;;0.90;;
72139;SDS011;60018;49.688;19.180;2022-09-13T01:45:39;1.00;;;1.00;;
72139;SDS011;60018;49.688;19.180;2022-09-13T01:48:14;0.97;;;0.97;;
72139;SDS011;60018;49.688;19.180;2022-09-13T01:50:45;0.70;;;0.70;;
72139;SDS011;60018;49.688;19.180;2022-09-13T01:53:16;1.07;;;1.07;;
72139;SDS011;60018;49.688;19.180;2022-09-13T01:55:49;0.97;;;0.97;;
72139;SDS011;60018;49.688;19.180;2022-09-13T01:58:21;0.87;;;0.87;;
72139;SDS011;60018;49.688;19.180;2022-09-13T02:00:55;0.80;;;0.80;;
72139;SDS011;60018;49.688;19.180;2022-09-13T02:03:29;0.97;;;0.97;;
72139;SDS011;60018;49.688;19.180;2022-09-13T02:06:01;0.97;;;0.97;;
72139;SDS011;60018;49.688;19.180;2022-09-13T02:08:31;1.00;;;1.00;;
72139;SDS011;60018;49.688;19.180;2022-09-13T02:11:03;0.87;;;0.87;;
72139;SDS011;60018;49.688;19.180;2022-09-13T02:13:34;0.87;;;0.87;;
72139;SDS011;60018;49.688;19.180;2022-09-13T02:16:04;1.23;;;1.13;;
72139;SDS011;60018;49.688;19.180;2022-09-13T02:18:36;1.10;;;1.10;;
72139;SDS011;60018;49.688;19.180;2022-09-13T02:21:05;1.07;;;1.07;;
72139;SDS011;60018;49.688;19.180;2022-09-13T02:23:34;0.70;;;0.70;;
72139;SDS011;60018;49.688;19.180;2022-09-13T02:26:04;0.93;;;0.93;;
72139;SDS011;60018;49.688;19.180;2022-09-13T02:28:32;0.80;;;0.80;;
72139;SDS011;60018;49.688;19.180;2022-09-13T02:31:03;1.00;;;1.00;;
72139;SDS011;60018;49.688;19.180;2022-09-13T02:33:31;1.00;;;1.00;;
72139;SDS011;60018;49.688;19.180;2022-09-13T02:35:59;0.83;;;0.83;;
72139;SDS011;60018;49.688;19.180;2022-09-13T02:38:27;0.93;;;0.93;;
72139;SDS011;60018;49.688;19.180;2022-09-13T02:40:59;0.97;;;0.97;;
72139;SDS011;60018;49.688;19.180;2022-09-13T02:43:32;1.03;;;1.03;;
72139;SDS011;60018;49.688;19.180;2022-09-13T02:46:05;1.00;;;1.00;;
72139;SDS011;60018;49.688;19.180;2022-09-13T02:48:41;0.90;;;0.90;;
72139;SDS011;60018;49.688;19.180;2022-09-13T02:51:14;1.10;;;1.10;;
72139;SDS011;60018;49.688;19.180;2022-09-13T02:53:49;1.17;;;1.07;;
72139;SDS011;60018;49.688;19.180;2022-09-13T02:56:19;0.90;;;0.90;;
72139;SDS011;60018;49.688;19.180;2022-09-13T02:58:49;1.10;;;1.10;;
72139;SDS011;60018;49.688;19.180;2022-09-13T03:01:22;0.82;;;0.82;;
72139;SDS011;60018;49.688;19.180;2022-09-13T03:03:47;0.90;;;0.90;;
72139;SDS011;60018;49.688;19.180;2022-09-13T03:06:19;1.23;;;1.13;;
72139;SDS011;60018;49.688;19.180;2022-09-13T03:08:46;1.07;;;1.07;;
72139;SDS011;60018;49.688;19.180;2022-09-13T03:11:13;0.80;;;0.80;;
72139;SDS011;60018;49.688;19.180;2022-09-13T03:13:48;0.85;;;0.85;;
72139;SDS011;60018;49.688;19.180;2022-09-13T03:16:26;0.97;;;0.97;;
72139;SDS011;60018;49.688;19.180;2022-09-13T03:19:05;0.90;;;0.90;;
72139;SDS011;60018;49.688;19.180;2022-09-13T03:21:45;1.03;;;1.03;;
72139;SDS011;60018;49.688;19.180;2022-09-13T03:24:21;1.23;;;1.13;;
72139;SDS011;60018;49.688;19.180;2022-09-13T03:26:55;1.07;;;1.07;;
72139;SDS011;60018;49.688;19.180;2022-09-13T03:29:32;0.85;;;0.85;;
72139;SDS011;60018;49.688;19.180;2022-09-13T03:32:07;0.98;;;0.90;;
72139;SDS011;60018;49.688;19.180;2022-09-13T03:34:42;1.17;;;1.07;;
72139;SDS011;60018;49.688;19.180;2022-09-13T03:37:14;1.23;;;1.13;;
72139;SDS011;60018;49.688;19.180;2022-09-13T03:39:47;0.77;;;0.77;;
72139;SDS011;60018;49.688;19.180;2022-09-13T03:42:17;0.93;;;0.93;;
72139;SDS011;60018;49.688;19.180;2022-09-13T03:44:46;0.93;;;0.93;;
72139;SDS011;60018;49.688;19.180;2022-09-13T03:47:16;1.13;;;1.13;;
72139;SDS011;60018;49.688;19.180;2022-09-13T03:49:43;1.20;;;1.10;;
72139;SDS011;60018;49.688;19.180;2022-09-13T03:52:08;1.03;;;1.03;;
72139;SDS011;60018;49.688;19.180;2022-09-13T03:54:36;1.00;;;1.00;;
72139;SDS011;60018;49.688;19.180;2022-09-13T03:57:06;1.07;;;1.07;;
72139;SDS011;60018;49.688;19.180;2022-09-13T03:59:36;1.13;;;1.03;;
72139;SDS011;60018;49.688;19.180;2022-09-13T04:02:03;1.03;;;1.03;;
72139;SDS011;60018;49.688;19.180;2022-09-13T04:04:30;0.97;;;0.97;;
72139;SDS011;60018;49.688;19.180;2022-09-13T04:06:56;1.13;;;1.03;;
72139;SDS011;60018;49.688;19.180;2022-09-13T04:09:21;1.17;;;1.07;;
72139;SDS011;60018;49.688;19.180;2022-09-13T04:11:46;1.07;;;1.07;;
72139;SDS011;60018;49.688;19.180;2022-09-13T04:14:12;1.00;;;1.00;;
72139;SDS011;60018;49.688;19.180;2022-09-13T04:16:37;1.23;;;1.13;;
72139;SDS011;60018;49.688;19.180;2022-09-13T04:19:02;1.00;;;1.00;;
72139;SDS011;60018;49.688;19.180;2022-09-13T04:21:29;1.20;;;1.10;;
72139;SDS011;60018;49.688;19.180;2022-09-13T04:23:55;1.23;;;1.13;;
72139;SDS011;60018;49.688;19.180;2022-09-13T04:26:20;1.03;;;1.03;;
72139;SDS011;60018;49.688;19.180;2022-09-13T04:28:45;1.13;;;1.13;;
72139;SDS011;60018;49.688;19.180;2022-09-13T04:31:11;1.13;;;1.13;;
72139;SDS011;60018;49.688;19.180;2022-09-13T04:33:36;1.00;;;1.00;;
72139;SDS011;60018;49.688;19.180;2022-09-13T04:36:01;1.13;;;1.03;;
72139;SDS011;60018;49.688;19.180;2022-09-13T04:38:28;1.23;;;1.13;;
72139;SDS011;60018;49.688;19.180;2022-09-13T04:40:55;1.23;;;1.13;;
72139;SDS011;60018;49.688;19.180;2022-09-13T04:43:20;1.23;;;1.13;;
72139;SDS011;60018;49.688;19.180;2022-09-13T04:45:46;1.17;;;1.07;;
72139;SDS011;60018;49.688;19.180;2022-09-13T04:48:11;1.23;;;1.13;;
72139;SDS011;60018;49.688;19.180;2022-09-13T04:50:36;1.23;;;1.13;;
72139;SDS011;60018;49.688;19.180;2022-09-13T04:53:02;1.23;;;1.13;;
72139;SDS011;60018;49.688;19.180;2022-09-13T04:55:28;1.27;;;1.17;;
72139;SDS011;60018;49.688;19.180;2022-09-13T04:57:54;1.07;;;1.07;;
72139;SDS011;60018;49.688;19.180;2022-09-13T05:00:19;1.37;;;1.20;;
72139;SDS011;60018;49.688;19.180;2022-09-13T05:02:45;0.83;;;0.83;;
72139;SDS011;60018;49.688;19.180;2022-09-13T05:05:10;1.23;;;1.13;;
72139;SDS011;60018;49.688;19.180;2022-09-13T05:07:35;1.33;;;1.23;;
72139;SDS011;60018;49.688;19.180;2022-09-13T05:10:01;1.40;;;1.23;;
72139;SDS011;60018;49.688;19.180;2022-09-13T05:12:28;1.27;;;1.17;;
72139;SDS011;60018;49.688;19.180;2022-09-13T05:14:53;1.20;;;1.10;;
72139;SDS011;60018;49.688;19.180;2022-09-13T05:17:18;1.20;;;1.10;;
72139;SDS011;60018;49.688;19.180;2022-09-13T05:19:44;1.23;;;1.13;;
72139;SDS011;60018;49.688;19.180;2022-09-13T05:22:09;1.70;;;1.43;;
72139;SDS011;60018;49.688;19.180;2022-09-13T05:24:34;1.70;;;1.23;;
72139;SDS011;60018;49.688;19.180;2022-09-13T05:27:00;1.70;;;1.33;;
72139;SDS011;60018;49.688;19.180;2022-09-13T05:29:26;1.20;;;1.10;;
72139;SDS011;60018;49.688;19.180;2022-09-13T05:31:52;1.73;;;1.30;;
72139;SDS011;60018;49.688;19.180;2022-09-13T05:34:17;1.80;;;1.38;;
72139;SDS011;60018;49.688;19.180;2022-09-13T05:36:43;1.90;;;1.48;;
72139;SDS011;60018;49.688;19.180;2022-09-13T05:41:36;1.90;;;1.42;;
72139;SDS011;60018;49.688;19.180;2022-09-13T05:44:02;1.90;;;1.65;;
72139;SDS011;60018;49.688;19.180;2022-09-13T05:46:29;1.90;;;1.58;;
72139;SDS011;60018;49.688;19.180;2022-09-13T05:48:56;2.00;;;1.73;;
72139;SDS011;60018;49.688;19.180;2022-09-13T05:51:22;1.90;;;1.52;;
72139;SDS011;60018;49.688;19.180;2022-09-13T05:53:48;2.00;;;1.73;;
72139;SDS011;60018;49.688;19.180;2022-09-13T05:56:15;2.03;;;1.80;;
72139;SDS011;60018;49.688;19.180;2022-09-13T05:58:44;1.90;;;1.40;;
72139;SDS011;60018;49.688;19.180;2022-09-13T06:01:11;2.08;;;1.88;;
72139;SDS011;60018;49.688;19.180;2022-09-13T06:03:38;2.15;;;1.95;;
72139;SDS011;60018;49.688;19.180;2022-09-13T06:06:04;2.22;;;2.03;;
72139;SDS011;60018;49.688;19.180;2022-09-13T06:08:31;2.00;;;1.65;;
72139;SDS011;60018;49.688;19.180;2022-09-13T06:10:58;2.17;;;1.98;;
72139;SDS011;60018;49.688;19.180;2022-09-13T06:13:25;2.13;;;1.92;;
72139;SDS011;60018;49.688;19.180;2022-09-13T06:15:50;1.92;;;1.70;;
72139;SDS011;60018;49.688;19.180;2022-09-13T06:18:16;2.05;;;1.85;;
72139;SDS011;60018;49.688;19.180;2022-09-13T06:20:43;2.10;;;1.90;;
72139;SDS011;60018;49.688;19.180;2022-09-13T06:23:09;2.22;;;2.03;;
72139;SDS011;60018;49.688;19.180;2022-09-13T06:25:34;2.10;;;1.90;;
72139;SDS011;60018;49.688;19.180;2022-09-13T06:28:00;2.15;;;1.95;;
72139;SDS011;60018;49.688;19.180;2022-09-13T06:30:25;2.15;;;1.95;;
72139;SDS011;60018;49.688;19.180;2022-09-13T06:32:51;2.17;;;1.98;;
72139;SDS011;60018;49.688;19.180;2022-09-13T06:35:16;2.13;;;1.92;;
72139;SDS011;60018;49.688;19.180;2022-09-13T06:37:43;2.30;;;2.10;;
72139;SDS011;60018;49.688;19.180;2022-09-13T06:40:08;2.00;;;1.77;;
72139;SDS011;60018;49.688;19.180;2022-09-13T06:42:34;2.03;;;1.80;;
72139;SDS011;60018;49.688;19.180;2022-09-13T06:45:01;2.00;;;1.73;;
72139;SDS011;60018;49.688;19.180;2022-09-13T06:47:26;1.98;;;1.60;;
72139;SDS011;60018;49.688;19.180;2022-09-13T06:49:52;2.05;;;1.85;;
72139;SDS011;60018;49.688;19.180;2022-09-13T06:52:17;2.00;;;1.67;;
72139;SDS011;60018;49.688;19.180;2022-09-13T06:54:44;2.08;;;1.88;;
72139;SDS011;60018;49.688;19.180;2022-09-13T06:57:09;1.90;;;1.45;;
72139;SDS011;60018;49.688;19.180;2022-09-13T06:59:35;1.90;;;1.50;;
72139;SDS011;60018;49.688;19.180;2022-09-13T07:02:00;2.35;;;2.15;;
72139;SDS011;60018;49.688;19.180;2022-09-13T07:04:26;2.03;;;1.83;;
72139;SDS011;60018;49.688;19.180;2022-09-13T07:06:51;2.13;;;1.92;;
72139;SDS011;60018;49.688;19.180;2022-09-13T07:09:17;2.03;;;1.83;;
72139;SDS011;60018;49.688;19.180;2022-09-13T07:11:45;2.08;;;1.88;;
72139;SDS011;60018;49.688;19.180;2022-09-13T07:14:12;2.20;;;2.00;;
72139;SDS011;60018;49.688;19.180;2022-09-13T07:16:38;1.92;;;1.55;;
72139;SDS011;60018;49.688;19.180;2022-09-13T07:19:04;2.00;;;1.65;;
72139;SDS011;60018;49.688;19.180;2022-09-13T07:21:31;1.92;;;1.55;;
72139;SDS011;60018;49.688;19.180;2022-09-13T07:23:57;2.15;;;1.95;;
72139;SDS011;60018;49.688;19.180;2022-09-13T07:26:23;2.30;;;2.10;;
72139;SDS011;60018;49.688;19.180;2022-09-13T07:28:51;2.13;;;1.92;;
72139;SDS011;60018;49.688;19.180;2022-09-13T07:31:19;2.20;;;2.00;;
72139;SDS011;60018;49.688;19.180;2022-09-13T07:33:46;1.98;;;1.65;;
72139;SDS011;60018;49.688;19.180;2022-09-13T07:36:12;1.90;;;1.55;;
72139;SDS011;60018;49.688;19.180;2022-09-13T07:38:39;2.00;;;1.65;;
72139;SDS011;60018;49.688;19.180;2022-09-13T07:41:06;2.25;;;2.05;;
72139;SDS011;60018;49.688;19.180;2022-09-13T07:43:34;2.10;;;1.90;;
72139;SDS011;60018;49.688;19.180;2022-09-13T07:46:02;2.00;;;1.75;;
72139;SDS011;60018;49.688;19.180;2022-09-13T07:48:29;2.08;;;1.85;;
72139;SDS011;60018;49.688;19.180;2022-09-13T07:50:56;2.00;;;1.75;;
72139;SDS011;60018;49.688;19.180;2022-09-13T07:53:26;1.98;;;1.63;;
72139;SDS011;60018;49.688;19.180;2022-09-13T07:55:51;2.00;;;1.75;;
72139;SDS011;60018;49.688;19.180;2022-09-13T07:58:17;2.10;;;1.85;;
72139;SDS011;60018;49.688;19.180;2022-09-13T08:00:42;2.03;;;1.83;;
72139;SDS011;60018;49.688;19.180;2022-09-13T08:03:10;2.17;;;1.98;;
72139;SDS011;60018;49.688;19.180;2022-09-13T08:05:37;2.13;;;1.92;;
72139;SDS011;60018;49.688;19.180;2022-09-13T08:08:02;2.17;;;1.98;;
72139;SDS011;60018;49.688;19.180;2022-09-13T08:10:28;2.03;;;1.83;;
72139;SDS011;60018;49.688;19.180;2022-09-13T08:12:53;2.25;;;2.05;;
72139;SDS011;60018;49.688;19.180;2022-09-13T08:15:19;2.08;;;1.88;;
72139;SDS011;60018;49.688;19.180;2022-09-13T08:17:44;2.00;;;1.70;;
72139;SDS011;60018;49.688;19.180;2022-09-13T08:20:11;2.00;;;1.73;;
72139;SDS011;60018;49.688;19.180;2022-09-13T08:22:36;2.08;;;1.83;;
72139;SDS011;60018;49.688;19.180;2022-09-13T08:25:02;2.03;;;1.80;;
72139;SDS011;60018;49.688;19.180;2022-09-13T08:27:27;1.90;;;1.50;;
72139;SDS011;60018;49.688;19.180;2022-09-13T08:29:53;2.05;;;1.85;;
72139;SDS011;60018;49.688;19.180;2022-09-13T08:32:18;1.90;;;1.58;;
72139;SDS011;60018;49.688;19.180;2022-09-13T08:34:43;2.00;;;1.73;;
72139;SDS011;60018;49.688;19.180;2022-09-13T08:37:10;2.08;;;1.88;;
72139;SDS011;60018;49.688;19.180;2022-09-13T08:39:35;2.15;;;1.95;;
72139;SDS011;60018;49.688;19.180;2022-09-13T08:42:13;2.00;;;1.67;;
72139;SDS011;60018;49.688;19.180;2022-09-13T08:44:46;2.13;;;1.92;;
72139;SDS011;60018;49.688;19.180;2022-09-13T08:47:20;2.08;;;1.83;;
72139;SDS011;60018;49.688;19.180;2022-09-13T08:49:51;2.00;;;1.75;;
72139;SDS011;60018;49.688;19.180;2022-09-13T08:52:27;2.10;;;1.88;;
72139;SDS011;60018;49.688;19.180;2022-09-13T08:54:54;2.10;;;1.85;;
72139;SDS011;60018;49.688;19.180;2022-09-13T08:57:21;2.15;;;1.95;;
72139;SDS011;60018;49.688;19.180;2022-09-13T08:59:53;2.00;;;1.73;;
72139;SDS011;60018;49.688;19.180;2022-09-13T09:02:33;2.13;;;1.92;;
72139;SDS011;60018;49.688;19.180;2022-09-13T09:05:12;1.98;;;1.63;;
72139;SDS011;60018;49.688;19.180;2022-09-13T09:07:43;2.15;;;1.95;;
72139;SDS011;60018;49.688;19.180;2022-09-13T09:10:13;2.03;;;1.83;;
72139;SDS011;60018;49.688;19.180;2022-09-13T09:12:41;2.03;;;1.83;;
72139;SDS011;60018;49.688;19.180;2022-09-13T09:15:12;2.25;;;2.05;;
72139;SDS011;60018;49.688;19.180;2022-09-13T09:17:42;2.08;;;1.88;;
72139;SDS011;60018;49.688;19.180;2022-09-13T09:20:22;2.13;;;1.92;;
72139;SDS011;60018;49.688;19.180;2022-09-13T09:22:53;2.28;;;2.08;;
72139;SDS011;60018;49.688;19.180;2022-09-13T09:25:19;2.15;;;1.95;;
72139;SDS011;60018;49.688;19.180;2022-09-13T09:27:46;2.10;;;1.90;;
72139;SDS011;60018;49.688;19.180;2022-09-13T09:30:12;2.13;;;1.92;;
72139;SDS011;60018;49.688;19.180;2022-09-13T09:32:45;2.28;;;2.08;;
72139;SDS011;60018;49.688;19.180;2022-09-13T09:35:19;2.45;;;2.25;;
72139;SDS011;60018;49.688;19.180;2022-09-13T09:37:56;2.05;;;1.83;;
72139;SDS011;60018;49.688;19.180;2022-09-13T09:40:37;2.42;;;2.22;;
72139;SDS011;60018;49.688;19.180;2022-09-13T09:43:08;2.45;;;2.25;;
72139;SDS011;60018;49.688;19.180;2022-09-13T09:45:39;2.03;;;1.83;;
72139;SDS011;60018;49.688;19.180;2022-09-13T09:48:05;2.22;;;2.03;;
72139;SDS011;60018;49.688;19.180;2022-09-13T09:50:37;2.47;;;2.28;;
72139;SDS011;60018;49.688;19.180;2022-09-13T09:53:10;2.40;;;2.20;;
72139;SDS011;60018;49.688;19.180;2022-09-13T09:55:39;2.53;;;2.33;;
72139;SDS011;60018;49.688;19.180;2022-09-13T09:58:07;2.95;;;2.75;;
72139;SDS011;60018;49.688;19.180;2022-09-13T10:00:34;2.70;;;2.50;;
72139;SDS011;60018;49.688;19.180;2022-09-13T10:03:02;2.80;;;2.60;;
72139;SDS011;60018;49.688;19.180;2022-09-13T10:05:29;2.55;;;2.35;;
72139;SDS011;60018;49.688;19.180;2022-09-13T10:07:56;2.88;;;2.67;;
72139;SDS011;60018;49.688;19.180;2022-09-13T10:10:28;2.85;;;2.65;;
72139;SDS011;60018;49.688;19.180;2022-09-13T10:13:00;2.45;;;2.25;;
72139;SDS011;60018;49.688;19.180;2022-09-13T10:15:26;2.53;;;2.33;;
72139;SDS011;60018;49.688;19.180;2022-09-13T10:18:00;2.35;;;2.15;;
72139;SDS011;60018;49.688;19.180;2022-09-13T10:20:27;2.50;;;2.30;;
72139;SDS011;60018;49.688;19.180;2022-09-13T10:23:08;2.70;;;2.50;;
72139;SDS011;60018;49.688;19.180;2022-09-13T10:25:36;2.70;;;2.50;;
72139;SDS011;60018;49.688;19.180;2022-09-13T10:28:03;2.50;;;2.30;;
72139;SDS011;60018;49.688;19.180;2022-09-13T10:30:35;1.90;;;1.38;;
72139;SDS011;60018;49.688;19.180;2022-09-13T10:33:04;2.35;;;2.15;;
72139;SDS011;60018;49.688;19.180;2022-09-13T10:35:30;2.45;;;2.25;;
72139;SDS011;60018;49.688;19.180;2022-09-13T10:37:57;2.40;;;2.20;;
72139;SDS011;60018;49.688;19.180;2022-09-13T10:40:23;2.53;;;2.33;;
72139;SDS011;60018;49.688;19.180;2022-09-13T10:42:55;2.40;;;2.20;;
72139;SDS011;60018;49.688;19.180;2022-09-13T10:45:22;2.53;;;2.33;;
72139;SDS011;60018;49.688;19.180;2022-09-13T10:47:49;2.63;;;2.42;;
72139;SDS011;60018;49.688;19.180;2022-09-13T10:50:18;2.45;;;2.25;;
72139;SDS011;60018;49.688;19.180;2022-09-13T10:52:46;2.47;;;2.28;;
72139;SDS011;60018;49.688;19.180;2022-09-13T10:55:15;2.38;;;2.17;;
72139;SDS011;60018;49.688;19.180;2022-09-13T10:57:48;2.45;;;2.25;;
72139;SDS011;60018;49.688;19.180;2022-09-13T11:00:17;2.80;;;2.60;;
72139;SDS011;60018;49.688;19.180;2022-09-13T11:02:51;2.83;;;2.63;;
72139;SDS011;60018;49.688;19.180;2022-09-13T11:05:28;2.67;;;2.47;;
72139;SDS011;60018;49.688;19.180;2022-09-13T11:08:05;2.33;;;2.13;;
72139;SDS011;60018;49.688;19.180;2022-09-13T11:10:44;2.85;;;2.65;;
72139;SDS011;60018;49.688;19.180;2022-09-13T11:13:18;2.50;;;2.30;;
72139;SDS011;60018;49.688;19.180;2022-09-13T11:15:54;2.45;;;2.25;;
72139;SDS011;60018;49.688;19.180;2022-09-13T11:18:40;2.72;;;2.53;;
72139;SDS011;60018;49.688;19.180;2022-09-13T11:21:17;2.72;;;2.53;;
72139;SDS011;60018;49.688;19.180;2022-09-13T11:24:02;2.65;;;2.45;;
72139;SDS011;60018;49.688;19.180;2022-09-13T11:26:38;2.72;;;2.53;;
72139;SDS011;60018;49.688;19.180;2022-09-13T11:29:26;2.75;;;2.55;;
72139;SDS011;60018;49.688;19.180;2022-09-13T11:32:06;2.42;;;2.22;;
72139;SDS011;60018;49.688;19.180;2022-09-13T11:34:44;2.50;;;2.30;;
72139;SDS011;60018;49.688;19.180;2022-09-13T11:37:29;2.38;;;2.17;;
72139;SDS011;60018;49.688;19.180;2022-09-13T11:40:09;2.45;;;2.25;;
72139;SDS011;60018;49.688;19.180;2022-09-13T11:42:47;2.38;;;2.17;;
72139;SDS011;60018;49.688;19.180;2022-09-13T11:47:59;2.42;;;2.22;;
72139;SDS011;60018;49.688;19.180;2022-09-13T11:50:35;2.58;;;2.38;;
72139;SDS011;60018;49.688;19.180;2022-09-13T11:53:19;2.55;;;2.35;;
72139;SDS011;60018;49.688;19.180;2022-09-13T11:56:00;2.85;;;2.65;;
72139;SDS011;60018;49.688;19.180;2022-09-13T11:58:30;2.53;;;2.33;;
72139;SDS011;60018;49.688;19.180;2022-09-13T12:00:59;2.40;;;2.20;;
72139;SDS011;60018;49.688;19.180;2022-09-13T12:03:32;2.92;;;2.72;;
72139;SDS011;60018;49.688;19.180;2022-09-13T12:06:03;2.75;;;2.55;;
72139;SDS011;60018;49.688;19.180;2022-09-13T12:08:35;2.40;;;2.20;;
72139;SDS011;60018;49.688;19.180;2022-09-13T12:11:02;2.70;;;2.50;;
72139;SDS011;60018;49.688;19.180;2022-09-13T12:13:34;2.83;;;2.63;;
72139;SDS011;60018;49.688;19.180;2022-09-13T12:16:05;2.10;;;1.90;;
72139;SDS011;60018;49.688;19.180;2022-09-13T12:18:35;2.42;;;2.22;;
72139;SDS011;60018;49.688;19.180;2022-09-13T12:21:05;2.58;;;2.38;;
72139;SDS011;60018;49.688;19.180;2022-09-13T12:23:34;2.65;;;2.45;;
72139;SDS011;60018;49.688;19.180;2022-09-13T12:26:03;2.63;;;2.42;;
72139;SDS011;60018;49.688;19.180;2022-09-13T12:28:33;2.58;;;2.38;;
72139;SDS011;60018;49.688;19.180;2022-09-13T12:31:03;2.67;;;2.47;;
72139;SDS011;60018;49.688;19.180;2022-09-13T12:33:38;2.58;;;2.38;;
72139;SDS011;60018;49.688;19.180;2022-09-13T12:36:23;2.83;;;2.63;;
72139;SDS011;60018;49.688;19.180;2022-09-13T12:39:08;2.75;;;2.55;;
72139;SDS011;60018;49.688;19.180;2022-09-13T12:41:50;2.80;;;2.60;;
72139;SDS011;60018;49.688;19.180;2022-09-13T12:44:33;2.78;;;2.58;;
72139;SDS011;60018;49.688;19.180;2022-09-13T12:50:21;3.10;;;2.90;;
72139;SDS011;60018;49.688;19.180;2022-09-13T12:58:42;2.92;;;2.72;;
72139;SDS011;60018;49.688;19.180;2022-09-13T13:01:19;2.85;;;2.65;;
72139;SDS011;60018;49.688;19.180;2022-09-13T13:03:48;2.88;;;2.67;;
72139;SDS011;60018;49.688;19.180;2022-09-13T13:06:23;2.92;;;2.72;;
72139;SDS011;60018;49.688;19.180;2022-09-13T13:08:53;2.92;;;2.72;;
72139;SDS011;60018;49.688;19.180;2022-09-13T13:11:21;2.85;;;2.65;;
72139;SDS011;60018;49.688;19.180;2022-09-13T13:13:52;2.90;;;2.70;;
72139;SDS011;60018;49.688;19.180;2022-09-13T13:16:22;2.58;;;2.38;;
72139;SDS011;60018;49.688;19.180;2022-09-13T13:18:49;2.97;;;2.78;;
72139;SDS011;60018;49.688;19.180;2022-09-13T13:21:28;2.88;;;2.67;;
72139;SDS011;60018;49.688;19.180;2022-09-13T13:33:04;2.95;;;2.75;;
72139;SDS011;60018;49.688;19.180;2022-09-13T13:35:30;2.88;;;2.67;;
72139;SDS011;60018;49.688;19.180;2022-09-13T13:38:05;2.80;;;2.60;;
72139;SDS011;60018;49.688;19.180;2022-09-13T13:40:38;2.58;;;2.38;;
72139;SDS011;60018;49.688;19.180;2022-09-13T13:43:27;2.83;;;2.63;;
72139;SDS011;60018;49.688;19.180;2022-09-13T13:45:56;2.75;;;2.55;;
72139;SDS011;60018;49.688;19.180;2022-09-13T13:48:33;2.85;;;2.65;;
72139;SDS011;60018;49.688;19.180;2022-09-13T13:51:13;2.75;;;2.55;;
72139;SDS011;60018;49.688;19.180;2022-09-13T13:53:46;2.90;;;2.70;;
72139;SDS011;60018;49.688;19.180;2022-09-13T13:56:18;2.92;;;2.72;;
72139;SDS011;60018;49.688;19.180;2022-09-13T13:58:48;2.83;;;2.63;;
72139;SDS011;60018;49.688;19.180;2022-09-13T14:01:17;2.85;;;2.65;;
72139;SDS011;60018;49.688;19.180;2022-09-13T14:03:49;2.75;;;2.55;;
72139;SDS011;60018;49.688;19.180;2022-09-13T14:06:26;2.80;;;2.60;;
72139;SDS011;60018;49.688;19.180;2022-09-13T14:09:05;2.50;;;2.30;;
72139;SDS011;60018;49.688;19.180;2022-09-13T14:11:40;2.85;;;2.65;;
72139;SDS011;60018;49.688;19.180;2022-09-13T14:14:26;2.72;;;2.53;;
72139;SDS011;60018;49.688;19.180;2022-09-13T14:17:05;2.80;;;2.60;;
72139;SDS011;60018;49.688;19.180;2022-09-13T14:19:51;2.88;;;2.67;;
72139;SDS011;60018;49.688;19.180;2022-09-13T14:22:19;2.65;;;2.45;;
72139;SDS011;60018;49.688;19.180;2022-09-13T14:24:47;2.92;;;2.72;;
72139;SDS011;60018;49.688;19.180;2022-09-13T14:27:15;2.92;;;2.72;;
72139;SDS011;60018;49.688;19.180;2022-09-13T14:29:46;2.72;;;2.53;;
72139;SDS011;60018;49.688;19.180;2022-09-13T14:32:15;2.72;;;2.53;;
72139;SDS011;60018;49.688;19.180;2022-09-13T14:34:50;2.97;;;2.78;;
72139;SDS011;60018;49.688;19.180;2022-09-13T14:37:18;2.85;;;2.65;;
72139;SDS011;60018;49.688;19.180;2022-09-13T14:39:55;2.75;;;2.55;;
72139;SDS011;60018;49.688;19.180;2022-09-13T14:42:22;2.72;;;2.53;;
72139;SDS011;60018;49.688;19.180;2022-09-13T14:44:48;2.80;;;2.60;;
72139;SDS011;60018;49.688;19.180;2022-09-13T14:47:15;2.85;;;2.65;;
72139;SDS011;60018;49.688;19.180;2022-09-13T14:49:46;2.70;;;2.50;;
72139;SDS011;60018;49.688;19.180;2022-09-13T14:52:15;2.60;;;2.40;;
72139;SDS011;60018;49.688;19.180;2022-09-13T14:54:46;2.40;;;2.20;;
72139;SDS011;60018;49.688;19.180;2022-09-13T14:57:20;2.50;;;2.30;;
72139;SDS011;60018;49.688;19.180;2022-09-13T14:59:49;2.53;;;2.33;;
72139;SDS011;60018;49.688;19.180;2022-09-13T15:02:18;2.78;;;2.58;;
72139;SDS011;60018;49.688;19.180;2022-09-13T15:04:46;2.83;;;2.63;;
72139;SDS011;60018;49.688;19.180;2022-09-13T15:07:26;2.55;;;2.35;;
72139;SDS011;60018;49.688;19.180;2022-09-13T15:09:56;2.53;;;2.33;;
72139;SDS011;60018;49.688;19.180;2022-09-13T15:12:31;2.47;;;2.28;;
72139;SDS011;60018;49.688;19.180;2022-09-13T15:17:55;2.63;;;2.42;;
72139;SDS011;60018;49.688;19.180;2022-09-13T15:20:21;2.63;;;2.42;;